sensor_id;sensor_type;location;lat;lon;timestamp;P1;durP1;ratioP1;P2;durP2;ratioP2
2225;SDS011;1119;48.288;8.726;2024-01-07T00:00:24;22.33;;;10.97;;
2225;SDS011;1119;48.288;8.726;2024-01-07T00:03:11;22.43;;;11.57;;
2225;SDS011;1119;48.288;8.726;2024-01-07T00:05:59;22.40;;;11.10;;
2225;SDS011;1119;48.288;8.726;2024-01-07T00:08:47;22.20;;;9.93;;
2225;SDS011;1119;48.288;8.726;2024-01-07T00:11:35;22.30;;;10.20;;
2225;SDS011;1119;48.288;8.726;2024-01-07T00:14:23;22.47;;;10.93;;
2225;SDS011;1119;48.288;8.726;2024-01-07T00:17:11;22.17;;;10.13;;
2225;SDS011;1119;48.288;8.726;2024-01-07T00:19:59;22.30;;;10.17;;
2225;SDS011;1119;48.288;8.726;2024-01-07T00:22:47;22.30;;;10.40;;
2225;SDS011;1119;48.288;8.726;2024-01-07T00:25:35;22.37;;;10.80;;
2225;SDS011;1119;48.288;8.726;2024-01-07T00:28:22;22.20;;;10.30;;
2225;SDS011;1119;48.288;8.726;2024-01-07T00:31:12;22.40;;;10.77;;
2225;SDS011;1119;48.288;8.726;2024-01-07T00:34:00;22.33;;;10.33;;
2225;SDS011;1119;48.288;8.726;2024-01-07T00:36:47;22.10;;;9.80;;
2225;SDS011;1119;48.288;8.726;2024-01-07T00:39:35;22.17;;;10.30;;
2225;SDS011;1119;48.288;8.726;2024-01-07T00:42:23;22.17;;;10.13;;
2225;SDS011;1119;48.288;8.726;2024-01-07T00:45:11;22.30;;;10.70;;
2225;SDS011;1119;48.288;8.726;2024-01-07T00:48:00;22.40;;;11.40;;
2225;SDS011;1119;48.288;8.726;2024-01-07T00:50:47;22.23;;;10.17;;
2225;SDS011;1119;48.288;8.726;2024-01-07T00:53:35;22.23;;;10.50;;
2225;SDS011;1119;48.288;8.726;2024-01-07T00:56:25;22.27;;;10.40;;
2225;SDS011;1119;48.288;8.726;2024-01-07T00:59:13;22.30;;;10.57;;
2225;SDS011;1119;48.288;8.726;2024-01-07T01:02:00;22.33;;;10.60;;
2225;SDS011;1119;48.288;8.726;2024-01-07T01:04:49;22.17;;;10.20;;
2225;SDS011;1119;48.288;8.726;2024-01-07T01:07:37;22.33;;;10.70;;
2225;SDS011;1119;48.288;8.726;2024-01-07T01:10:24;22.00;;;10.00;;
2225;SDS011;1119;48.288;8.726;2024-01-07T01:13:12;22.10;;;9.83;;
2225;SDS011;1119;48.288;8.726;2024-01-07T01:16:00;22.15;;;10.07;;
2225;SDS011;1119;48.288;8.726;2024-01-07T01:18:47;22.30;;;10.57;;
2225;SDS011;1119;48.288;8.726;2024-01-07T01:21:36;22.00;;;10.07;;
2225;SDS011;1119;48.288;8.726;2024-01-07T01:24:24;22.13;;;10.50;;
2225;SDS011;1119;48.288;8.726;2024-01-07T01:27:11;22.40;;;11.17;;
2225;SDS011;1119;48.288;8.726;2024-01-07T01:30:01;22.27;;;11.07;;
2225;SDS011;1119;48.288;8.726;2024-01-07T01:32:48;22.07;;;9.77;;
2225;SDS011;1119;48.288;8.726;2024-01-07T01:35:36;22.20;;;10.53;;
2225;SDS011;1119;48.288;8.726;2024-01-07T01:38:25;21.97;;;10.07;;
2225;SDS011;1119;48.288;8.726;2024-01-07T01:41:12;22.20;;;9.93;;
2225;SDS011;1119;48.288;8.726;2024-01-07T01:44:00;21.93;;;9.93;;
2225;SDS011;1119;48.288;8.726;2024-01-07T01:46:48;22.00;;;10.07;;
2225;SDS011;1119;48.288;8.726;2024-01-07T01:49:36;22.10;;;9.97;;
2225;SDS011;1119;48.288;8.726;2024-01-07T01:52:23;22.00;;;9.70;;
2225;SDS011;1119;48.288;8.726;2024-01-07T01:55:13;22.10;;;10.13;;
2225;SDS011;1119;48.288;8.726;2024-01-07T01:58:01;22.27;;;10.73;;
2225;SDS011;1119;48.288;8.726;2024-01-07T02:00:50;22.07;;;9.90;;
2225;SDS011;1119;48.288;8.726;2024-01-07T02:03:38;21.90;;;10.10;;
2225;SDS011;1119;48.288;8.726;2024-01-07T02:06:26;22.17;;;10.43;;
2225;SDS011;1119;48.288;8.726;2024-01-07T02:09:14;22.30;;;10.83;;
2225;SDS011;1119;48.288;8.726;2024-01-07T02:12:03;22.10;;;10.50;;
2225;SDS011;1119;48.288;8.726;2024-01-07T02:14:52;22.10;;;10.20;;
2225;SDS011;1119;48.288;8.726;2024-01-07T02:17:39;22.50;;;11.63;;
2225;SDS011;1119;48.288;8.726;2024-01-07T02:20:28;22.00;;;10.47;;
2225;SDS011;1119;48.288;8.726;2024-01-07T02:23:15;22.10;;;10.63;;
2225;SDS011;1119;48.288;8.726;2024-01-07T02:26:04;21.80;;;8.93;;
2225;SDS011;1119;48.288;8.726;2024-01-07T02:28:52;22.00;;;9.80;;
2225;SDS011;1119;48.288;8.726;2024-01-07T02:31:40;22.20;;;10.53;;
2225;SDS011;1119;48.288;8.726;2024-01-07T02:34:27;22.33;;;10.80;;
2225;SDS011;1119;48.288;8.726;2024-01-07T02:37:15;22.03;;;9.67;;
2225;SDS011;1119;48.288;8.726;2024-01-07T02:40:03;22.20;;;10.53;;
2225;SDS011;1119;48.288;8.726;2024-01-07T02:42:53;21.90;;;9.53;;
2225;SDS011;1119;48.288;8.726;2024-01-07T02:45:42;22.40;;;11.20;;
2225;SDS011;1119;48.288;8.726;2024-01-07T02:48:29;22.30;;;10.70;;
2225;SDS011;1119;48.288;8.726;2024-01-07T02:51:17;21.97;;;9.60;;
2225;SDS011;1119;48.288;8.726;2024-01-07T02:54:05;21.87;;;9.53;;
2225;SDS011;1119;48.288;8.726;2024-01-07T02:56:52;22.20;;;10.47;;
2225;SDS011;1119;48.288;8.726;2024-01-07T02:59:41;21.93;;;9.47;;
2225;SDS011;1119;48.288;8.726;2024-01-07T03:02:29;21.97;;;9.90;;
2225;SDS011;1119;48.288;8.726;2024-01-07T03:05:16;22.20;;;10.40;;
2225;SDS011;1119;48.288;8.726;2024-01-07T03:08:05;21.90;;;9.93;;
2225;SDS011;1119;48.288;8.726;2024-01-07T03:10:53;22.07;;;10.30;;
2225;SDS011;1119;48.288;8.726;2024-01-07T03:13:41;22.07;;;10.03;;
2225;SDS011;1119;48.288;8.726;2024-01-07T03:16:30;21.97;;;9.80;;
2225;SDS011;1119;48.288;8.726;2024-01-07T03:19:17;21.85;;;8.95;;
2225;SDS011;1119;48.288;8.726;2024-01-07T03:22:06;22.00;;;10.63;;
2225;SDS011;1119;48.288;8.726;2024-01-07T03:24:54;22.33;;;10.90;;
2225;SDS011;1119;48.288;8.726;2024-01-07T03:27:42;22.13;;;9.97;;
2225;SDS011;1119;48.288;8.726;2024-01-07T03:30:29;22.27;;;10.83;;
2225;SDS011;1119;48.288;8.726;2024-01-07T03:33:18;22.42;;;11.27;;
2225;SDS011;1119;48.288;8.726;2024-01-07T03:36:06;22.30;;;11.20;;
2225;SDS011;1119;48.288;8.726;2024-01-07T03:38:55;22.50;;;11.53;;
2225;SDS011;1119;48.288;8.726;2024-01-07T03:41:43;22.40;;;11.03;;
2225;SDS011;1119;48.288;8.726;2024-01-07T03:44:30;22.40;;;11.27;;
2225;SDS011;1119;48.288;8.726;2024-01-07T03:47:18;22.47;;;11.40;;
2225;SDS011;1119;48.288;8.726;2024-01-07T03:50:07;22.30;;;10.60;;
2225;SDS011;1119;48.288;8.726;2024-01-07T03:52:55;22.40;;;11.10;;
2225;SDS011;1119;48.288;8.726;2024-01-07T03:55:43;22.40;;;11.37;;
2225;SDS011;1119;48.288;8.726;2024-01-07T03:58:30;22.33;;;10.70;;
2225;SDS011;1119;48.288;8.726;2024-01-07T04:01:18;22.30;;;11.23;;
2225;SDS011;1119;48.288;8.726;2024-01-07T04:04:06;22.10;;;10.33;;
2225;SDS011;1119;48.288;8.726;2024-01-07T04:06:55;22.43;;;10.93;;
2225;SDS011;1119;48.288;8.726;2024-01-07T04:09:43;22.43;;;11.07;;
2225;SDS011;1119;48.288;8.726;2024-01-07T04:12:31;22.45;;;10.90;;
2225;SDS011;1119;48.288;8.726;2024-01-07T04:15:18;22.63;;;11.35;;
2225;SDS011;1119;48.288;8.726;2024-01-07T04:18:06;22.37;;;11.00;;
2225;SDS011;1119;48.288;8.726;2024-01-07T04:20:54;22.67;;;12.17;;
2225;SDS011;1119;48.288;8.726;2024-01-07T04:23:43;22.70;;;11.87;;
2225;SDS011;1119;48.288;8.726;2024-01-07T04:26:30;22.60;;;12.17;;
2225;SDS011;1119;48.288;8.726;2024-01-07T04:29:18;22.40;;;11.50;;
2225;SDS011;1119;48.288;8.726;2024-01-07T04:32:06;22.70;;;12.20;;
2225;SDS011;1119;48.288;8.726;2024-01-07T04:34:54;22.90;;;12.70;;
2225;SDS011;1119;48.288;8.726;2024-01-07T04:37:42;23.00;;;12.90;;
2225;SDS011;1119;48.288;8.726;2024-01-07T04:40:31;22.90;;;12.80;;
2225;SDS011;1119;48.288;8.726;2024-01-07T04:43:19;22.90;;;13.10;;
2225;SDS011;1119;48.288;8.726;2024-01-07T04:46:07;22.95;;;12.80;;
2225;SDS011;1119;48.288;8.726;2024-01-07T04:48:56;22.77;;;12.57;;
2225;SDS011;1119;48.288;8.726;2024-01-07T04:51:43;22.97;;;12.90;;
2225;SDS011;1119;48.288;8.726;2024-01-07T04:54:31;22.80;;;12.60;;
2225;SDS011;1119;48.288;8.726;2024-01-07T04:57:20;23.00;;;13.13;;
2225;SDS011;1119;48.288;8.726;2024-01-07T05:00:17;22.57;;;11.47;;
2225;SDS011;1119;48.288;8.726;2024-01-07T05:03:05;22.10;;;9.70;;
2225;SDS011;1119;48.288;8.726;2024-01-07T05:05:53;22.63;;;11.70;;
2225;SDS011;1119;48.288;8.726;2024-01-07T05:08:41;22.85;;;12.10;;
2225;SDS011;1119;48.288;8.726;2024-01-07T05:11:28;22.55;;;11.05;;
2225;SDS011;1119;48.288;8.726;2024-01-07T05:14:17;22.55;;;11.52;;
2225;SDS011;1119;48.288;8.726;2024-01-07T05:17:05;22.60;;;11.43;;
2225;SDS011;1119;48.288;8.726;2024-01-07T05:19:53;22.80;;;12.30;;
2225;SDS011;1119;48.288;8.726;2024-01-07T05:22:40;22.80;;;12.43;;
2225;SDS011;1119;48.288;8.726;2024-01-07T05:25:29;22.80;;;12.30;;
2225;SDS011;1119;48.288;8.726;2024-01-07T05:28:16;22.83;;;12.18;;
2225;SDS011;1119;48.288;8.726;2024-01-07T05:31:14;22.80;;;12.23;;
2225;SDS011;1119;48.288;8.726;2024-01-07T05:34:02;22.60;;;11.77;;
2225;SDS011;1119;48.288;8.726;2024-01-07T05:36:50;22.57;;;11.70;;
2225;SDS011;1119;48.288;8.726;2024-01-07T05:39:41;22.52;;;11.40;;
2225;SDS011;1119;48.288;8.726;2024-01-07T05:42:28;22.67;;;11.60;;
2225;SDS011;1119;48.288;8.726;2024-01-07T05:45:16;22.52;;;10.82;;
2225;SDS011;1119;48.288;8.726;2024-01-07T05:48:05;22.67;;;11.60;;
2225;SDS011;1119;48.288;8.726;2024-01-07T05:50:53;22.65;;;11.18;;
2225;SDS011;1119;48.288;8.726;2024-01-07T05:53:41;22.63;;;11.30;;
2225;SDS011;1119;48.288;8.726;2024-01-07T05:56:31;22.40;;;10.60;;
2225;SDS011;1119;48.288;8.726;2024-01-07T05:59:19;22.55;;;11.40;;
2225;SDS011;1119;48.288;8.726;2024-01-07T06:02:06;22.50;;;11.03;;
2225;SDS011;1119;48.288;8.726;2024-01-07T06:04:55;22.45;;;11.25;;
2225;SDS011;1119;48.288;8.726;2024-01-07T06:07:43;22.67;;;11.70;;
2225;SDS011;1119;48.288;8.726;2024-01-07T06:10:30;22.60;;;11.90;;
2225;SDS011;1119;48.288;8.726;2024-01-07T06:13:18;22.53;;;11.67;;
2225;SDS011;1119;48.288;8.726;2024-01-07T06:16:06;22.67;;;11.70;;
2225;SDS011;1119;48.288;8.726;2024-01-07T06:18:53;22.70;;;12.13;;
2225;SDS011;1119;48.288;8.726;2024-01-07T06:21:42;22.75;;;12.48;;
2225;SDS011;1119;48.288;8.726;2024-01-07T06:24:30;22.80;;;13.00;;
2225;SDS011;1119;48.288;8.726;2024-01-07T06:27:18;23.07;;;13.53;;
2225;SDS011;1119;48.288;8.726;2024-01-07T06:30:06;22.67;;;12.30;;
2225;SDS011;1119;48.288;8.726;2024-01-07T06:32:54;23.00;;;13.20;;
2225;SDS011;1119;48.288;8.726;2024-01-07T06:35:42;23.02;;;13.35;;
2225;SDS011;1119;48.288;8.726;2024-01-07T06:38:32;23.00;;;13.33;;
2225;SDS011;1119;48.288;8.726;2024-01-07T06:41:19;22.80;;;12.37;;
2225;SDS011;1119;48.288;8.726;2024-01-07T06:44:07;22.80;;;12.67;;
2225;SDS011;1119;48.288;8.726;2024-01-07T06:46:54;22.98;;;12.90;;
2225;SDS011;1119;48.288;8.726;2024-01-07T06:49:42;23.17;;;14.17;;
2225;SDS011;1119;48.288;8.726;2024-01-07T06:52:29;23.20;;;13.80;;
2225;SDS011;1119;48.288;8.726;2024-01-07T06:55:18;23.00;;;13.37;;
2225;SDS011;1119;48.288;8.726;2024-01-07T06:58:06;23.00;;;13.53;;
2225;SDS011;1119;48.288;8.726;2024-01-07T07:00:53;22.95;;;13.23;;
2225;SDS011;1119;48.288;8.726;2024-01-07T07:03:41;23.30;;;15.13;;
2225;SDS011;1119;48.288;8.726;2024-01-07T07:06:32;23.25;;;14.18;;
2225;SDS011;1119;48.288;8.726;2024-01-07T07:09:20;22.95;;;13.15;;
2225;SDS011;1119;48.288;8.726;2024-01-07T07:12:09;23.10;;;14.20;;
2225;SDS011;1119;48.288;8.726;2024-01-07T07:14:58;23.17;;;14.13;;
2225;SDS011;1119;48.288;8.726;2024-01-07T07:17:46;23.20;;;14.17;;
2225;SDS011;1119;48.288;8.726;2024-01-07T07:20:33;22.93;;;13.00;;
2225;SDS011;1119;48.288;8.726;2024-01-07T07:23:21;22.80;;;12.50;;
2225;SDS011;1119;48.288;8.726;2024-01-07T07:26:09;22.87;;;12.83;;
2225;SDS011;1119;48.288;8.726;2024-01-07T07:28:57;23.00;;;13.87;;
2225;SDS011;1119;48.288;8.726;2024-01-07T07:31:46;23.13;;;14.02;;
2225;SDS011;1119;48.288;8.726;2024-01-07T07:34:34;23.52;;;14.95;;
2225;SDS011;1119;48.288;8.726;2024-01-07T07:37:22;23.05;;;13.63;;
2225;SDS011;1119;48.288;8.726;2024-01-07T07:40:11;23.25;;;14.20;;
2225;SDS011;1119;48.288;8.726;2024-01-07T07:42:59;23.05;;;13.85;;
2225;SDS011;1119;48.288;8.726;2024-01-07T07:45:48;23.23;;;13.93;;
2225;SDS011;1119;48.288;8.726;2024-01-07T07:48:36;22.95;;;13.25;;
2225;SDS011;1119;48.288;8.726;2024-01-07T07:51:24;23.15;;;13.68;;
2225;SDS011;1119;48.288;8.726;2024-01-07T07:54:12;22.75;;;12.32;;
2225;SDS011;1119;48.288;8.726;2024-01-07T07:56:59;23.30;;;14.32;;
2225;SDS011;1119;48.288;8.726;2024-01-07T07:59:47;23.60;;;15.10;;
2225;SDS011;1119;48.288;8.726;2024-01-07T08:02:36;23.13;;;13.83;;
2225;SDS011;1119;48.288;8.726;2024-01-07T08:05:24;23.20;;;14.40;;
2225;SDS011;1119;48.288;8.726;2024-01-07T08:08:12;23.45;;;14.73;;
2225;SDS011;1119;48.288;8.726;2024-01-07T08:10:59;23.33;;;14.32;;
2225;SDS011;1119;48.288;8.726;2024-01-07T08:13:47;23.55;;;15.23;;
2225;SDS011;1119;48.288;8.726;2024-01-07T08:16:35;23.25;;;14.15;;
2225;SDS011;1119;48.288;8.726;2024-01-07T08:19:24;23.25;;;14.43;;
2225;SDS011;1119;48.288;8.726;2024-01-07T08:22:11;23.25;;;14.32;;
2225;SDS011;1119;48.288;8.726;2024-01-07T08:25:00;23.45;;;14.95;;
2225;SDS011;1119;48.288;8.726;2024-01-07T08:27:47;23.15;;;13.77;;
2225;SDS011;1119;48.288;8.726;2024-01-07T08:30:36;23.43;;;15.10;;
2225;SDS011;1119;48.288;8.726;2024-01-07T08:33:23;23.33;;;14.70;;
2225;SDS011;1119;48.288;8.726;2024-01-07T08:36:12;23.17;;;14.00;;
2225;SDS011;1119;48.288;8.726;2024-01-07T08:39:00;23.50;;;15.73;;
2225;SDS011;1119;48.288;8.726;2024-01-07T08:41:47;23.17;;;14.63;;
2225;SDS011;1119;48.288;8.726;2024-01-07T08:44:35;23.75;;;16.08;;
2225;SDS011;1119;48.288;8.726;2024-01-07T08:47:22;23.25;;;14.50;;
2225;SDS011;1119;48.288;8.726;2024-01-07T08:50:10;23.60;;;16.13;;
2225;SDS011;1119;48.288;8.726;2024-01-07T08:52:59;23.45;;;15.38;;
2225;SDS011;1119;48.288;8.726;2024-01-07T08:55:50;23.85;;;17.17;;
2225;SDS011;1119;48.288;8.726;2024-01-07T08:58:40;23.60;;;16.53;;
2225;SDS011;1119;48.288;8.726;2024-01-07T09:01:27;23.70;;;16.03;;
2225;SDS011;1119;48.288;8.726;2024-01-07T09:04:15;23.30;;;14.80;;
2225;SDS011;1119;48.288;8.726;2024-01-07T09:07:04;23.85;;;16.70;;
2225;SDS011;1119;48.288;8.726;2024-01-07T09:09:53;23.25;;;14.15;;
2225;SDS011;1119;48.288;8.726;2024-01-07T09:12:44;22.83;;;12.45;;
2225;SDS011;1119;48.288;8.726;2024-01-07T09:15:33;22.67;;;12.03;;
2225;SDS011;1119;48.288;8.726;2024-01-07T09:18:21;22.50;;;10.95;;
2225;SDS011;1119;48.288;8.726;2024-01-07T09:21:08;22.45;;;11.10;;
2225;SDS011;1119;48.288;8.726;2024-01-07T09:23:56;22.35;;;10.75;;
2225;SDS011;1119;48.288;8.726;2024-01-07T09:26:45;22.98;;;12.68;;
2225;SDS011;1119;48.288;8.726;2024-01-07T09:29:33;22.75;;;12.10;;
2225;SDS011;1119;48.288;8.726;2024-01-07T09:32:20;22.05;;;9.82;;
2225;SDS011;1119;48.288;8.726;2024-01-07T09:35:08;22.25;;;10.20;;
2225;SDS011;1119;48.288;8.726;2024-01-07T09:37:56;21.92;;;8.90;;
2225;SDS011;1119;48.288;8.726;2024-01-07T09:40:44;22.15;;;9.80;;
2225;SDS011;1119;48.288;8.726;2024-01-07T09:43:33;22.20;;;9.90;;
2225;SDS011;1119;48.288;8.726;2024-01-07T09:46:20;22.08;;;8.95;;
2225;SDS011;1119;48.288;8.726;2024-01-07T09:49:10;22.00;;;9.30;;
2225;SDS011;1119;48.288;8.726;2024-01-07T09:51:58;21.97;;;9.10;;
2225;SDS011;1119;48.288;8.726;2024-01-07T09:54:48;21.90;;;8.98;;
2225;SDS011;1119;48.288;8.726;2024-01-07T09:57:42;22.15;;;10.32;;
2225;SDS011;1119;48.288;8.726;2024-01-07T10:00:33;22.67;;;11.73;;
2225;SDS011;1119;48.288;8.726;2024-01-07T10:03:21;22.50;;;11.73;;
2225;SDS011;1119;48.288;8.726;2024-01-07T10:06:10;22.40;;;10.53;;
2225;SDS011;1119;48.288;8.726;2024-01-07T10:08:58;22.52;;;11.02;;
2225;SDS011;1119;48.288;8.726;2024-01-07T10:11:46;22.70;;;11.97;;
2225;SDS011;1119;48.288;8.726;2024-01-07T10:14:33;22.75;;;12.63;;
2225;SDS011;1119;48.288;8.726;2024-01-07T10:17:23;22.67;;;11.80;;
2225;SDS011;1119;48.288;8.726;2024-01-07T10:20:13;23.02;;;13.05;;
2225;SDS011;1119;48.288;8.726;2024-01-07T10:23:03;23.02;;;12.70;;
2225;SDS011;1119;48.288;8.726;2024-01-07T10:25:53;22.90;;;12.83;;
2225;SDS011;1119;48.288;8.726;2024-01-07T10:28:42;22.83;;;12.05;;
2225;SDS011;1119;48.288;8.726;2024-01-07T10:31:31;22.75;;;11.75;;
2225;SDS011;1119;48.288;8.726;2024-01-07T10:34:20;22.75;;;12.50;;
2225;SDS011;1119;48.288;8.726;2024-01-07T10:37:10;22.55;;;11.43;;
2225;SDS011;1119;48.288;8.726;2024-01-07T10:39:59;22.55;;;11.32;;
2225;SDS011;1119;48.288;8.726;2024-01-07T10:42:49;22.55;;;11.18;;
2225;SDS011;1119;48.288;8.726;2024-01-07T10:45:39;22.05;;;9.18;;
2225;SDS011;1119;48.288;8.726;2024-01-07T10:48:27;21.95;;;8.77;;
2225;SDS011;1119;48.288;8.726;2024-01-07T10:51:20;21.70;;;8.32;;
2225;SDS011;1119;48.288;8.726;2024-01-07T10:54:08;21.85;;;8.65;;
2225;SDS011;1119;48.288;8.726;2024-01-07T10:57:00;21.98;;;9.23;;
2225;SDS011;1119;48.288;8.726;2024-01-07T10:59:54;22.53;;;11.67;;
2225;SDS011;1119;48.288;8.726;2024-01-07T11:02:49;21.80;;;8.82;;
2225;SDS011;1119;48.288;8.726;2024-01-07T11:05:47;22.00;;;9.23;;
2225;SDS011;1119;48.288;8.726;2024-01-07T11:08:42;21.63;;;7.85;;
2225;SDS011;1119;48.288;8.726;2024-01-07T11:11:38;21.95;;;8.80;;
2225;SDS011;1119;48.288;8.726;2024-01-07T11:14:34;21.70;;;8.68;;
2225;SDS011;1119;48.288;8.726;2024-01-07T11:20:31;21.77;;;8.73;;
2225;SDS011;1119;48.288;8.726;2024-01-07T11:23:26;22.15;;;9.73;;
2225;SDS011;1119;48.288;8.726;2024-01-07T11:26:20;21.85;;;8.70;;
2225;SDS011;1119;48.288;8.726;2024-01-07T11:29:07;21.70;;;8.33;;
2225;SDS011;1119;48.288;8.726;2024-01-07T11:31:56;21.55;;;7.03;;
2225;SDS011;1119;48.288;8.726;2024-01-07T11:34:44;21.55;;;7.10;;
2225;SDS011;1119;48.288;8.726;2024-01-07T11:37:35;21.60;;;7.40;;
2225;SDS011;1119;48.288;8.726;2024-01-07T11:40:22;21.65;;;8.15;;
2225;SDS011;1119;48.288;8.726;2024-01-07T11:43:11;21.35;;;6.30;;
2225;SDS011;1119;48.288;8.726;2024-01-07T11:45:59;21.37;;;6.30;;
2225;SDS011;1119;48.288;8.726;2024-01-07T11:48:47;20.92;;;4.93;;
2225;SDS011;1119;48.288;8.726;2024-01-07T11:51:35;21.13;;;5.20;;
2225;SDS011;1119;48.288;8.726;2024-01-07T11:54:23;21.43;;;6.70;;
2225;SDS011;1119;48.288;8.726;2024-01-07T11:57:11;20.93;;;4.93;;
2225;SDS011;1119;48.288;8.726;2024-01-07T12:00:00;21.15;;;5.60;;
2225;SDS011;1119;48.288;8.726;2024-01-07T12:02:58;21.30;;;6.70;;
2225;SDS011;1119;48.288;8.726;2024-01-07T12:05:46;21.45;;;7.18;;
2225;SDS011;1119;48.288;8.726;2024-01-07T12:08:35;21.92;;;8.50;;
2225;SDS011;1119;48.288;8.726;2024-01-07T12:11:23;21.65;;;7.85;;
2225;SDS011;1119;48.288;8.726;2024-01-07T12:14:11;22.25;;;10.40;;
2225;SDS011;1119;48.288;8.726;2024-01-07T12:17:00;22.45;;;11.00;;
2225;SDS011;1119;48.288;8.726;2024-01-07T12:19:49;22.45;;;10.85;;
2225;SDS011;1119;48.288;8.726;2024-01-07T12:22:37;21.70;;;8.13;;
2225;SDS011;1119;48.288;8.726;2024-01-07T12:25:26;22.05;;;8.90;;
2225;SDS011;1119;48.288;8.726;2024-01-07T12:28:13;21.45;;;6.90;;
2225;SDS011;1119;48.288;8.726;2024-01-07T12:31:03;21.45;;;6.07;;
2225;SDS011;1119;48.288;8.726;2024-01-07T12:33:53;21.05;;;4.60;;
2225;SDS011;1119;48.288;8.726;2024-01-07T12:36:41;21.30;;;5.72;;
2225;SDS011;1119;48.288;8.726;2024-01-07T12:39:29;21.27;;;5.70;;
2225;SDS011;1119;48.288;8.726;2024-01-07T12:42:16;21.25;;;5.82;;
2225;SDS011;1119;48.288;8.726;2024-01-07T12:45:06;21.45;;;6.38;;
2225;SDS011;1119;48.288;8.726;2024-01-07T12:47:55;21.60;;;7.10;;
2225;SDS011;1119;48.288;8.726;2024-01-07T12:50:48;21.55;;;7.20;;
2225;SDS011;1119;48.288;8.726;2024-01-07T12:53:36;21.58;;;7.28;;
2225;SDS011;1119;48.288;8.726;2024-01-07T12:56:24;21.35;;;6.55;;
2225;SDS011;1119;48.288;8.726;2024-01-07T12:59:12;21.25;;;5.82;;
2225;SDS011;1119;48.288;8.726;2024-01-07T13:01:59;21.17;;;5.85;;
2225;SDS011;1119;48.288;8.726;2024-01-07T13:04:47;21.20;;;5.95;;
2225;SDS011;1119;48.288;8.726;2024-01-07T13:07:36;21.60;;;6.85;;
2225;SDS011;1119;48.288;8.726;2024-01-07T13:10:24;21.63;;;7.13;;
2225;SDS011;1119;48.288;8.726;2024-01-07T13:13:13;21.40;;;6.50;;
2225;SDS011;1119;48.288;8.726;2024-01-07T13:16:01;21.42;;;6.70;;
2225;SDS011;1119;48.288;8.726;2024-01-07T13:18:48;21.25;;;6.13;;
2225;SDS011;1119;48.288;8.726;2024-01-07T13:21:36;21.08;;;5.38;;
2225;SDS011;1119;48.288;8.726;2024-01-07T13:24:26;21.35;;;6.38;;
2225;SDS011;1119;48.288;8.726;2024-01-07T13:27:14;21.25;;;5.80;;
2225;SDS011;1119;48.288;8.726;2024-01-07T13:30:04;21.15;;;5.30;;
2225;SDS011;1119;48.288;8.726;2024-01-07T13:32:56;21.25;;;5.68;;
2225;SDS011;1119;48.288;8.726;2024-01-07T13:35:44;21.08;;;5.28;;
2225;SDS011;1119;48.288;8.726;2024-01-07T13:38:31;21.15;;;5.25;;
2225;SDS011;1119;48.288;8.726;2024-01-07T13:41:20;21.10;;;5.20;;
2225;SDS011;1119;48.288;8.726;2024-01-07T13:44:09;20.95;;;4.80;;
2225;SDS011;1119;48.288;8.726;2024-01-07T13:47:03;21.17;;;5.47;;
2225;SDS011;1119;48.288;8.726;2024-01-07T13:49:54;21.15;;;5.18;;
2225;SDS011;1119;48.288;8.726;2024-01-07T13:52:43;21.23;;;5.50;;
2225;SDS011;1119;48.288;8.726;2024-01-07T13:55:36;20.92;;;4.82;;
2225;SDS011;1119;48.288;8.726;2024-01-07T13:58:26;21.10;;;5.13;;
2225;SDS011;1119;48.288;8.726;2024-01-07T14:01:14;21.05;;;5.63;;
2225;SDS011;1119;48.288;8.726;2024-01-07T14:04:05;21.05;;;5.18;;
2225;SDS011;1119;48.288;8.726;2024-01-07T14:07:00;21.10;;;5.15;;
2225;SDS011;1119;48.288;8.726;2024-01-07T14:09:48;21.15;;;5.72;;
2225;SDS011;1119;48.288;8.726;2024-01-07T14:12:36;20.98;;;5.18;;
2225;SDS011;1119;48.288;8.726;2024-01-07T14:15:26;21.45;;;6.20;;
2225;SDS011;1119;48.288;8.726;2024-01-07T14:18:21;21.50;;;6.60;;
2225;SDS011;1119;48.288;8.726;2024-01-07T14:21:10;21.73;;;7.80;;
2225;SDS011;1119;48.288;8.726;2024-01-07T14:23:58;21.52;;;6.97;;
2225;SDS011;1119;48.288;8.726;2024-01-07T14:26:46;21.75;;;8.00;;
2225;SDS011;1119;48.288;8.726;2024-01-07T14:29:34;21.73;;;7.82;;
2225;SDS011;1119;48.288;8.726;2024-01-07T14:32:23;21.55;;;7.35;;
2225;SDS011;1119;48.288;8.726;2024-01-07T14:35:15;21.88;;;8.10;;
2225;SDS011;1119;48.288;8.726;2024-01-07T14:38:03;21.60;;;7.25;;
2225;SDS011;1119;48.288;8.726;2024-01-07T14:40:51;21.65;;;7.20;;
2225;SDS011;1119;48.288;8.726;2024-01-07T14:43:39;21.48;;;6.55;;
2225;SDS011;1119;48.288;8.726;2024-01-07T14:46:26;21.55;;;7.18;;
2225;SDS011;1119;48.288;8.726;2024-01-07T14:49:15;21.65;;;7.45;;
2225;SDS011;1119;48.288;8.726;2024-01-07T14:52:03;21.50;;;6.57;;
2225;SDS011;1119;48.288;8.726;2024-01-07T14:54:51;21.60;;;7.20;;
2225;SDS011;1119;48.288;8.726;2024-01-07T14:57:39;22.10;;;9.02;;
2225;SDS011;1119;48.288;8.726;2024-01-07T15:00:27;22.42;;;10.52;;
2225;SDS011;1119;48.288;8.726;2024-01-07T15:03:14;22.55;;;10.77;;
2225;SDS011;1119;48.288;8.726;2024-01-07T15:06:04;22.27;;;10.23;;
2225;SDS011;1119;48.288;8.726;2024-01-07T15:08:53;22.52;;;10.73;;
2225;SDS011;1119;48.288;8.726;2024-01-07T15:11:41;21.42;;;6.50;;
2225;SDS011;1119;48.288;8.726;2024-01-07T15:14:32;21.73;;;7.95;;
2225;SDS011;1119;48.288;8.726;2024-01-07T15:17:20;22.05;;;8.75;;
2225;SDS011;1119;48.288;8.726;2024-01-07T15:20:08;21.95;;;8.48;;
2225;SDS011;1119;48.288;8.726;2024-01-07T15:22:59;21.65;;;7.82;;
2225;SDS011;1119;48.288;8.726;2024-01-07T15:25:46;22.13;;;8.82;;
2225;SDS011;1119;48.288;8.726;2024-01-07T15:28:34;21.95;;;8.40;;
2225;SDS011;1119;48.288;8.726;2024-01-07T15:31:21;21.92;;;8.20;;
2225;SDS011;1119;48.288;8.726;2024-01-07T15:34:09;21.90;;;8.45;;
2225;SDS011;1119;48.288;8.726;2024-01-07T15:37:00;21.95;;;8.85;;
2225;SDS011;1119;48.288;8.726;2024-01-07T15:39:49;22.15;;;9.38;;
2225;SDS011;1119;48.288;8.726;2024-01-07T15:42:39;22.73;;;11.20;;
2225;SDS011;1119;48.288;8.726;2024-01-07T15:45:26;21.70;;;7.83;;
2225;SDS011;1119;48.288;8.726;2024-01-07T15:48:14;21.90;;;7.85;;
2225;SDS011;1119;48.288;8.726;2024-01-07T15:51:02;21.63;;;6.93;;
2225;SDS011;1119;48.288;8.726;2024-01-07T15:53:50;21.75;;;7.30;;
2225;SDS011;1119;48.288;8.726;2024-01-07T15:56:41;21.73;;;7.10;;
2225;SDS011;1119;48.288;8.726;2024-01-07T15:59:29;22.30;;;9.55;;
2225;SDS011;1119;48.288;8.726;2024-01-07T16:02:17;21.75;;;7.43;;
2225;SDS011;1119;48.288;8.726;2024-01-07T16:05:05;22.08;;;8.43;;
2225;SDS011;1119;48.288;8.726;2024-01-07T16:07:53;21.92;;;8.50;;
2225;SDS011;1119;48.288;8.726;2024-01-07T16:10:41;21.90;;;8.13;;
2225;SDS011;1119;48.288;8.726;2024-01-07T16:13:30;22.00;;;8.70;;
2225;SDS011;1119;48.288;8.726;2024-01-07T16:16:18;21.75;;;7.53;;
2225;SDS011;1119;48.288;8.726;2024-01-07T16:19:06;21.65;;;6.90;;
2225;SDS011;1119;48.288;8.726;2024-01-07T16:21:58;21.73;;;6.95;;
2225;SDS011;1119;48.288;8.726;2024-01-07T16:24:49;21.95;;;7.55;;
2225;SDS011;1119;48.288;8.726;2024-01-07T16:27:37;21.75;;;6.97;;
2225;SDS011;1119;48.288;8.726;2024-01-07T16:30:26;21.75;;;7.40;;
2225;SDS011;1119;48.288;8.726;2024-01-07T16:33:14;21.50;;;6.68;;
2225;SDS011;1119;48.288;8.726;2024-01-07T16:36:04;21.52;;;6.50;;
2225;SDS011;1119;48.288;8.726;2024-01-07T16:38:52;21.65;;;6.57;;
2225;SDS011;1119;48.288;8.726;2024-01-07T16:41:42;21.50;;;5.93;;
2225;SDS011;1119;48.288;8.726;2024-01-07T16:44:29;21.35;;;5.22;;
2225;SDS011;1119;48.288;8.726;2024-01-07T16:47:19;21.35;;;5.25;;
2225;SDS011;1119;48.288;8.726;2024-01-07T16:50:07;21.35;;;4.88;;
2225;SDS011;1119;48.288;8.726;2024-01-07T16:52:55;21.05;;;4.63;;
2225;SDS011;1119;48.288;8.726;2024-01-07T16:55:43;21.35;;;5.82;;
2225;SDS011;1119;48.288;8.726;2024-01-07T16:58:31;21.58;;;6.43;;
2225;SDS011;1119;48.288;8.726;2024-01-07T17:01:19;21.67;;;6.63;;
2225;SDS011;1119;48.288;8.726;2024-01-07T17:04:15;21.25;;;5.78;;